createdAt,value
2018-02-05T00:01:22.878Z,23.97
2018-02-05T00:03:50.322Z,24.63
2018-02-05T00:06:18.539Z,26.87
2018-02-05T00:08:45.983Z,23.53
2018-02-05T00:11:13.422Z,29.10
2018-02-05T00:13:40.863Z,27.30
2018-02-05T00:16:09.079Z,23.17
2018-02-05T00:18:36.510Z,28.73
2018-02-05T00:21:03.959Z,28.33
2018-02-05T00:23:31.398Z,25.90
2018-02-05T00:25:59.607Z,26.00
2018-02-05T00:28:27.815Z,33.67
2018-02-05T00:30:55.259Z,34.00
2018-02-05T00:33:22.699Z,29.10
2018-02-05T00:35:50.142Z,28.80
2018-02-05T00:38:18.346Z,32.97
2018-02-05T00:40:46.555Z,40.50
2018-02-05T00:43:14.053Z,45.10
2018-02-05T00:45:41.439Z,47.47
2018-02-05T00:48:08.874Z,55.53
2018-02-05T00:50:37.092Z,61.07
2018-02-05T00:53:04.527Z,57.43
2018-02-05T00:55:31.967Z,53.00
2018-02-05T00:57:59.407Z,69.73
2018-02-05T01:00:27.615Z,64.40
2018-02-05T01:02:55.823Z,64.80
2018-02-05T01:05:24.035Z,80.37
2018-02-05T01:07:51.479Z,78.70
2018-02-05T01:10:18.918Z,71.27
2018-02-05T01:12:46.354Z,80.20
2018-02-05T01:15:14.575Z,80.80
2018-02-05T01:17:42.270Z,72.63
2018-02-05T01:20:09.694Z,75.57
2018-02-05T01:22:37.135Z,76.80
2018-02-05T01:25:04.571Z,85.90
2018-02-05T01:27:32.787Z,75.30
2018-02-05T01:30:00.235Z,91.83
2018-02-05T01:32:27.679Z,82.03
2018-02-05T01:34:55.118Z,88.93
2018-02-05T01:37:23.326Z,87.00
2018-02-05T01:39:50.763Z,98.83
2018-02-05T01:42:18.211Z,91.20
2018-02-05T01:44:45.648Z,72.53
2018-02-05T01:47:13.854Z,80.70
2018-02-05T01:49:42.055Z,83.60
2018-02-05T01:52:10.262Z,74.40
2018-02-05T01:54:37.698Z,69.37
2018-02-05T01:57:05.142Z,77.77
2018-02-05T01:59:32.583Z,92.30
2018-02-05T02:02:00.786Z,67.67
2018-02-05T02:04:28.995Z,63.80
2018-02-05T02:06:57.202Z,57.17
2018-02-05T02:09:24.639Z,77.40
2018-02-05T02:11:52.083Z,56.00
2018-02-05T02:14:19.518Z,67.83
2018-02-05T02:16:47.735Z,55.83
2018-02-05T02:19:15.939Z,62.47
2018-02-05T02:21:43.378Z,65.43
2018-02-05T02:24:10.819Z,61.67
2018-02-05T02:26:38.262Z,66.47
2018-02-05T02:29:06.473Z,72.53
2018-02-05T02:31:34.683Z,62.17
2018-02-05T02:34:02.119Z,65.87
2018-02-05T02:36:29.567Z,55.53
2018-02-05T02:38:57.011Z,54.60
2018-02-05T02:41:25.226Z,50.20
2018-02-05T02:43:52.659Z,51.80
2018-02-05T02:46:20.108Z,50.20
2018-02-05T02:48:47.551Z,53.70
2018-02-05T02:51:15.765Z,55.83
2018-02-05T02:53:43.207Z,48.53
2018-02-05T02:56:10.648Z,55.40
2018-02-05T02:58:38.095Z,49.07
2018-02-05T03:01:06.301Z,48.87
2018-02-05T03:03:33.748Z,45.47
2018-02-05T03:06:01.198Z,55.60
2018-02-05T03:08:28.635Z,55.00
2018-02-05T03:10:56.083Z,46.97
2018-02-05T03:13:23.524Z,45.57
2018-02-05T03:15:50.972Z,49.73
2018-02-05T03:18:19.175Z,41.03
2018-02-05T03:20:46.620Z,44.43
2018-02-05T03:23:14.059Z,44.13
2018-02-05T03:25:41.503Z,41.53
2018-02-05T03:28:09.719Z,42.47
2018-02-05T03:30:37.160Z,45.00
2018-02-05T03:33:04.611Z,52.43
2018-02-05T03:35:32.051Z,57.60
2018-02-05T03:38:00.264Z,51.97
2018-02-05T03:40:27.703Z,65.97
2018-02-05T03:42:55.151Z,65.77
2018-02-05T03:45:22.590Z,61.87
2018-02-05T03:47:50.039Z,61.27
2018-02-05T03:50:17.476Z,61.40
2018-02-05T03:52:44.924Z,63.33
2018-02-05T03:55:13.131Z,69.03
2018-02-05T03:57:40.579Z,64.70
2018-02-05T04:00:08.025Z,60.93
2018-02-05T04:02:35.468Z,62.90
2018-02-05T04:05:02.916Z,70.83
2018-02-05T04:07:30.363Z,60.47
2018-02-05T04:09:57.803Z,60.20
2018-02-05T04:12:26.015Z,52.77
2018-02-05T04:14:53.572Z,61.13
2018-02-05T04:17:21.021Z,64.23
2018-02-05T04:19:48.459Z,53.00
2018-02-05T04:22:15.906Z,68.57
2018-02-05T04:24:43.343Z,59.73
2018-02-05T04:27:10.792Z,68.70
2018-02-05T04:29:38.999Z,62.93
2018-02-05T04:32:06.447Z,62.87
2018-02-05T04:34:33.896Z,62.97
2018-02-05T04:37:01.348Z,66.87
2018-02-05T04:39:28.787Z,63.83
2018-02-05T04:41:56.236Z,62.40
2018-02-05T04:44:23.675Z,63.83
2018-02-05T04:46:51.123Z,66.67
2018-02-05T04:49:18.559Z,63.57
2018-02-05T04:51:46.013Z,67.33
2018-02-05T04:54:14.215Z,65.37
2018-02-05T04:56:41.663Z,68.03
2018-02-05T04:59:09.105Z,73.47
2018-02-05T05:01:36.547Z,63.90
2018-02-05T05:04:04.756Z,80.50
2018-02-05T05:06:32.203Z,79.27
2018-02-05T05:08:59.643Z,67.40
2018-02-05T05:11:27.091Z,65.90
2018-02-05T05:13:55.299Z,62.80
2018-02-05T05:16:22.744Z,64.27
2018-02-05T05:18:50.191Z,61.27
2018-02-05T05:21:17.632Z,55.20
2018-02-05T05:23:45.843Z,64.60
2018-02-05T05:26:13.279Z,56.17
2018-02-05T05:28:40.723Z,66.40
2018-02-05T05:31:08.163Z,56.77
2018-02-05T05:33:36.379Z,61.53
2018-02-05T05:36:03.839Z,48.63
2018-02-05T05:38:32.052Z,53.07
2018-02-05T05:40:59.491Z,47.70
2018-02-05T05:43:28.447Z,47.60
2018-02-05T05:45:55.888Z,42.97
2018-02-05T05:48:23.335Z,52.73
2018-02-05T05:50:50.772Z,51.07
2018-02-05T05:53:18.983Z,44.67
2018-02-05T05:55:47.187Z,43.40
2018-02-05T05:58:14.631Z,46.53
2018-02-05T06:00:42.071Z,41.60
2018-02-05T06:03:09.520Z,41.47
2018-02-05T06:05:37.735Z,45.57
2018-02-05T06:08:05.179Z,44.13
2018-02-05T06:10:32.619Z,42.67
2018-02-05T06:13:00.068Z,45.00
2018-02-05T06:15:27.507Z,55.63
2018-02-05T06:17:54.951Z,42.80
2018-02-05T06:20:22.398Z,48.00
2018-02-05T06:22:50.607Z,43.37
2018-02-05T06:25:18.043Z,50.17
2018-02-05T06:27:45.491Z,43.00
2018-02-05T06:30:12.931Z,43.30
2018-02-05T06:32:41.144Z,44.93
2018-02-05T06:35:09.357Z,40.77
2018-02-05T06:37:36.803Z,40.13
2018-02-05T06:40:05.004Z,43.47
2018-02-05T06:42:33.224Z,36.17
2018-02-05T06:45:00.663Z,39.23
2018-02-05T06:47:28.111Z,38.90
2018-02-05T06:49:55.552Z,40.33
2018-02-05T06:52:35.590Z,45.93
2018-02-05T06:55:14.951Z,40.23
2018-02-05T06:57:42.404Z,44.40
2018-02-05T07:00:09.851Z,41.60
2018-02-05T07:02:38.072Z,37.63
2018-02-05T07:05:06.279Z,40.80
2018-02-05T07:07:33.731Z,43.03
2018-02-05T07:10:01.192Z,46.27
2018-02-05T07:12:28.639Z,40.50
2018-02-05T07:14:56.083Z,43.57
2018-02-05T07:17:24.307Z,52.00
2018-02-05T07:19:51.752Z,42.43
2018-02-05T07:22:19.196Z,46.57
2018-02-05T07:24:46.644Z,45.90
2018-02-05T07:27:14.851Z,42.20
2018-02-05T07:29:43.067Z,40.73
2018-02-05T07:32:11.272Z,46.77
2018-02-05T07:34:39.483Z,40.40
2018-02-05T07:37:06.924Z,33.63
2018-02-05T07:39:34.376Z,34.47
2018-02-05T07:42:01.815Z,36.40
2018-02-05T07:44:30.023Z,32.97
2018-02-05T07:46:57.462Z,36.23
2018-02-05T07:49:24.916Z,33.63
2018-02-05T07:51:52.356Z,35.77
2018-02-05T07:54:19.800Z,35.80
2018-02-05T07:56:47.248Z,34.53
2018-02-05T07:59:15.468Z,37.30
2018-02-05T08:01:43.701Z,32.07
2018-02-05T08:04:11.151Z,33.20
2018-02-05T08:06:39.384Z,36.23
2018-02-05T08:09:06.830Z,29.70
2018-02-05T08:11:35.042Z,29.60
2018-02-05T08:14:02.494Z,40.13
2018-02-05T08:16:29.932Z,38.37
2018-02-05T08:18:57.382Z,33.53
2018-02-05T08:21:25.587Z,32.37
2018-02-05T08:23:53.805Z,26.27
2018-02-05T08:26:22.012Z,33.07
2018-02-05T08:28:49.467Z,28.07
2018-02-05T08:31:17.668Z,29.63
2018-02-05T08:33:45.121Z,27.13
2018-02-05T08:36:14.064Z,27.10
2018-02-05T08:38:42.282Z,28.40
2018-02-05T08:41:09.746Z,31.50
2018-02-05T08:43:37.984Z,28.17
2018-02-05T08:46:05.395Z,29.03
2018-02-05T08:48:32.836Z,35.33
2018-02-05T08:51:00.271Z,29.40
2018-02-05T08:53:27.721Z,29.00
2018-02-05T08:55:55.165Z,31.80
2018-02-05T08:58:22.607Z,39.20
2018-02-05T09:00:50.047Z,32.37
2018-02-05T09:03:17.487Z,31.23
2018-02-05T09:05:45.703Z,28.10
2018-02-05T09:08:13.144Z,24.63
2018-02-05T09:10:40.596Z,29.90
2018-02-05T09:13:08.037Z,27.43
2018-02-05T09:15:35.492Z,25.73
2018-02-05T09:18:02.932Z,25.33
2018-02-05T09:20:30.379Z,26.07
2018-02-05T09:22:57.824Z,26.73
2018-02-05T09:25:25.271Z,23.10
2018-02-05T09:27:52.727Z,17.80
2018-02-05T09:30:20.172Z,18.40
2018-02-05T09:32:47.616Z,18.90
2018-02-05T09:35:15.060Z,11.63
2018-02-05T09:37:43.263Z,15.20
2018-02-05T09:40:12.321Z,18.40
2018-02-05T09:42:39.755Z,13.33
2018-02-05T09:45:07.975Z,16.17
2018-02-05T09:47:35.420Z,16.03
2018-02-05T09:50:02.866Z,16.97
2018-02-05T09:52:30.299Z,15.30
2018-02-05T09:54:58.504Z,16.03
2018-02-05T09:57:26.708Z,14.43
2018-02-05T09:59:54.148Z,12.67
2018-02-05T10:02:21.652Z,17.13
2018-02-05T10:04:49.100Z,24.57
2018-02-05T10:07:16.530Z,11.87
2018-02-05T10:09:44.744Z,17.47
2018-02-05T10:12:12.943Z,12.60
2018-02-05T10:14:41.151Z,13.93
2018-02-05T10:17:08.584Z,16.37
2018-02-05T10:19:36.027Z,13.60
2018-02-05T10:22:03.460Z,12.40
2018-02-05T10:24:30.899Z,11.13
2018-02-05T10:26:58.332Z,14.67
2018-02-05T10:29:25.775Z,12.13
2018-02-05T10:31:53.218Z,13.60
2018-02-05T10:34:20.659Z,15.23
2018-02-05T10:36:48.095Z,22.83
2018-02-05T10:39:16.299Z,14.00
2018-02-05T10:41:44.502Z,15.47
2018-02-05T10:44:12.704Z,12.33
2018-02-05T10:46:40.903Z,13.67
2018-02-05T10:49:08.348Z,13.43
2018-02-05T10:51:35.779Z,23.40
2018-02-05T10:54:03.215Z,16.07
2018-02-05T10:56:30.648Z,13.40
2018-02-05T10:58:58.084Z,13.93
2018-02-05T11:01:25.519Z,11.30
2018-02-05T11:03:52.951Z,12.40
2018-02-05T11:06:20.391Z,18.63
2018-02-05T11:08:47.831Z,16.70
2018-02-05T11:11:15.265Z,12.50
2018-02-05T11:13:42.699Z,27.70
2018-02-05T11:16:10.135Z,11.27
2018-02-05T11:18:37.583Z,13.40
2018-02-05T11:21:05.791Z,12.80
2018-02-05T11:23:34.004Z,8.03
2018-02-05T11:26:02.203Z,12.80
2018-02-05T11:28:29.635Z,11.40
2018-02-05T11:30:57.095Z,17.43
2018-02-05T11:33:24.524Z,15.93
2018-02-05T11:35:51.966Z,15.63
2018-02-05T11:38:19.405Z,12.03
2018-02-05T11:40:47.607Z,13.20
2018-02-05T11:43:15.811Z,11.70
2018-02-05T11:45:43.250Z,10.63
2018-02-05T11:48:10.683Z,11.33
2018-02-05T11:50:38.124Z,13.97
2018-02-05T11:53:05.556Z,12.93
2018-02-05T11:55:32.995Z,14.53
2018-02-05T11:58:01.219Z,11.93
2018-02-05T12:00:28.659Z,18.53
2018-02-05T12:02:56.096Z,11.90
2018-02-05T12:05:23.535Z,12.90
2018-02-05T12:07:51.745Z,11.87
2018-02-05T12:10:19.951Z,11.63
2018-02-05T12:12:47.388Z,17.20
2018-02-05T12:15:14.831Z,11.90
2018-02-05T12:17:42.263Z,15.60
2018-02-05T12:20:09.709Z,13.03
2018-02-05T12:22:37.144Z,11.03
2018-02-05T12:25:05.355Z,24.07
2018-02-05T12:27:32.792Z,14.30
2018-02-05T12:30:00.227Z,12.60
2018-02-05T12:32:27.659Z,25.83
2018-02-05T12:34:55.101Z,12.20
2018-02-05T12:37:22.533Z,11.23
2018-02-05T12:39:50.745Z,14.07
2018-02-05T12:42:18.948Z,14.33
2018-02-05T12:44:47.156Z,10.60
2018-02-05T12:47:14.590Z,13.07
2018-02-05T12:49:42.032Z,13.27
2018-02-05T12:52:09.472Z,11.63
2018-02-05T12:54:37.687Z,17.63
2018-02-05T12:57:05.126Z,11.60
2018-02-05T12:59:32.556Z,11.83
2018-02-05T13:02:00.899Z,13.37
2018-02-05T13:04:32.819Z,11.23
2018-02-05T13:07:01.032Z,10.50
2018-02-05T13:09:29.236Z,11.07
2018-02-05T13:11:56.684Z,11.10
2018-02-05T13:14:24.115Z,26.63
2018-02-05T13:16:51.555Z,11.73
2018-02-05T13:19:19.755Z,9.73
2018-02-05T13:21:48.072Z,13.37
2018-02-05T13:24:16.251Z,11.53
2018-02-05T13:26:44.463Z,12.87
2018-02-05T13:29:12.668Z,14.37
2018-02-05T13:31:40.871Z,16.33
2018-02-05T13:34:08.312Z,16.23
2018-02-05T13:36:35.755Z,16.03
2018-02-05T13:39:03.205Z,13.63
2018-02-05T13:41:31.415Z,21.93
2018-02-05T13:43:58.843Z,13.40
2018-02-05T13:46:26.283Z,13.20
2018-02-05T13:48:53.715Z,15.20
2018-02-05T13:51:21.155Z,15.97
2018-02-05T13:53:48.594Z,15.77
2018-02-05T13:56:16.804Z,12.60
2018-02-05T13:58:45.006Z,12.80
2018-02-05T14:01:13.211Z,10.80
2018-02-05T14:03:40.643Z,16.83
2018-02-05T14:06:08.092Z,12.03
2018-02-05T14:08:35.522Z,18.60
2018-02-05T14:11:02.968Z,13.87
2018-02-05T14:13:30.403Z,16.43
2018-02-05T14:15:58.615Z,17.30
2018-02-05T14:18:26.051Z,13.87
2018-02-05T14:20:53.497Z,15.57
2018-02-05T14:23:20.928Z,23.27
2018-02-05T14:25:49.142Z,19.33
2018-02-05T14:28:17.395Z,11.87
2018-02-05T14:30:44.824Z,15.70
2018-02-05T14:33:13.028Z,15.23
2018-02-05T14:35:41.248Z,17.83
2018-02-05T14:38:08.679Z,16.20
2018-02-05T14:40:36.120Z,16.93
2018-02-05T14:43:03.580Z,19.67
2018-02-05T14:45:31.007Z,18.63
2018-02-05T14:47:58.451Z,13.60
2018-02-05T14:50:25.908Z,17.03
2018-02-05T14:52:53.347Z,12.63
2018-02-05T14:55:20.779Z,15.87
2018-02-05T14:57:48.227Z,15.57
2018-02-05T15:00:15.669Z,17.73
2018-02-05T15:02:43.107Z,14.07
2018-02-05T15:05:10.547Z,15.73
2018-02-05T15:07:37.988Z,18.33
2018-02-05T15:10:05.427Z,17.30
2018-02-05T15:12:33.643Z,19.03
2018-02-05T15:15:01.849Z,21.80
2018-02-05T15:17:29.294Z,17.50
2018-02-05T15:19:56.736Z,16.90
2018-02-05T15:22:24.179Z,17.77
2018-02-05T15:24:52.380Z,17.20
2018-02-05T15:27:20.587Z,16.23
2018-02-05T15:29:48.025Z,16.17
2018-02-05T15:32:15.479Z,16.10
2018-02-05T15:34:42.921Z,13.50
2018-02-05T15:37:11.127Z,13.53
2018-02-05T15:39:38.564Z,16.60
2018-02-05T15:42:06.008Z,16.13
2018-02-05T15:44:33.444Z,12.57
2018-02-05T15:47:01.920Z,13.90
2018-02-05T15:49:29.351Z,15.63
2018-02-05T15:51:56.796Z,13.23
2018-02-05T15:54:24.242Z,16.93
2018-02-05T15:56:51.688Z,14.27
2018-02-05T15:59:19.889Z,19.03
2018-02-05T16:01:48.102Z,15.87
2018-02-05T16:04:15.540Z,16.27
2018-02-05T16:06:42.987Z,17.23
2018-02-05T16:09:10.481Z,16.63
2018-02-05T16:11:37.867Z,20.17
2018-02-05T16:14:05.315Z,16.27
2018-02-05T16:16:32.752Z,13.93
2018-02-05T16:19:00.967Z,30.30
2018-02-05T16:21:29.172Z,15.30
2018-02-05T16:23:56.645Z,19.90
2018-02-05T16:26:24.864Z,16.33
2018-02-05T16:28:52.304Z,17.97
2018-02-05T16:31:19.746Z,22.27
2018-02-05T16:33:47.255Z,17.10
2018-02-05T16:36:14.692Z,16.97
2018-02-05T16:38:42.139Z,14.93
2018-02-05T16:41:09.570Z,13.73
2018-02-05T16:43:37.034Z,17.17
2018-02-05T16:46:04.468Z,18.87
2018-02-05T16:48:31.914Z,17.40
2018-02-05T16:50:59.348Z,15.47
2018-02-05T16:53:27.571Z,16.40
2018-02-05T16:55:55.001Z,16.00
2018-02-05T16:58:22.446Z,14.70
2018-02-05T17:00:49.880Z,14.43
2018-02-05T17:03:17.324Z,14.10
2018-02-05T17:05:44.751Z,18.20
2018-02-05T17:08:12.199Z,16.03
2018-02-05T17:10:40.405Z,16.17
2018-02-05T17:13:07.863Z,13.30
2018-02-05T17:15:35.303Z,12.20
2018-02-05T17:18:02.748Z,16.70
2018-02-05T17:20:30.951Z,18.20
2018-02-05T17:22:58.383Z,13.73
2018-02-05T17:25:25.835Z,16.10
2018-02-05T17:27:53.285Z,18.07
2018-02-05T17:30:21.496Z,17.17
2018-02-05T17:32:48.940Z,19.00
2018-02-05T17:35:16.388Z,17.50
2018-02-05T17:37:43.831Z,16.70
2018-02-05T17:40:11.872Z,17.10
2018-02-05T17:42:39.308Z,16.87
2018-02-05T17:45:06.755Z,18.30
2018-02-05T17:47:34.190Z,15.00
2018-02-05T17:50:01.641Z,16.70
2018-02-05T17:52:29.847Z,22.37
2018-02-05T17:54:57.347Z,15.60
2018-02-05T17:57:25.825Z,22.03
2018-02-05T17:59:54.035Z,18.00
2018-02-05T18:02:22.239Z,19.23
2018-02-05T18:04:49.683Z,14.87
2018-02-05T18:07:17.131Z,20.80
2018-02-05T18:09:44.579Z,15.87
2018-02-05T18:12:12.028Z,18.63
2018-02-05T18:14:40.235Z,19.57
2018-02-05T18:17:08.448Z,17.07
2018-02-05T18:19:36.890Z,19.23
2018-02-05T18:22:04.343Z,19.40
2018-02-05T18:24:31.783Z,20.07
2018-02-05T18:26:59.232Z,17.40
2018-02-05T18:29:26.679Z,20.47
2018-02-05T18:31:54.124Z,18.17
2018-02-05T18:34:21.580Z,20.40
2018-02-05T18:36:49.028Z,22.17
2018-02-05T18:39:16.467Z,23.33
2018-02-05T18:41:43.919Z,22.13
2018-02-05T18:44:11.360Z,20.00
2018-02-05T18:46:38.807Z,21.10
2018-02-05T18:49:06.257Z,21.20
2018-02-05T18:51:33.696Z,17.10
2018-02-05T18:54:01.912Z,22.83
2018-02-05T18:56:41.217Z,20.03
2018-02-05T18:59:08.672Z,19.97
2018-02-05T19:01:36.120Z,22.70
2018-02-05T19:04:04.327Z,21.10
2018-02-05T19:06:31.784Z,19.03
2018-02-05T19:08:59.227Z,22.90
2018-02-05T19:11:26.672Z,23.20
2018-02-05T19:13:54.120Z,18.20
2018-02-05T19:16:21.563Z,21.23
2018-02-05T19:18:49.013Z,27.33
2018-02-05T19:21:16.448Z,25.17
2018-02-05T19:23:43.896Z,25.97
2018-02-05T19:26:11.340Z,21.03
2018-02-05T19:28:39.548Z,21.80
2018-02-05T19:31:07.758Z,22.07
2018-02-05T19:33:35.207Z,25.27
2018-02-05T19:36:02.711Z,23.07
2018-02-05T19:38:30.941Z,17.27
2018-02-05T19:40:58.375Z,26.70
2018-02-05T19:43:25.857Z,25.17
2018-02-05T19:45:53.383Z,25.80
2018-02-05T19:48:20.827Z,22.10
2018-02-05T19:50:49.095Z,28.73
2018-02-05T19:53:16.532Z,26.10
2018-02-05T19:55:43.984Z,22.50
2018-02-05T19:58:11.434Z,34.73
2018-02-05T20:00:38.880Z,26.80
2018-02-05T20:03:06.379Z,27.33
2018-02-05T20:05:33.811Z,27.00
2018-02-05T20:08:01.255Z,28.23
2018-02-05T20:10:28.715Z,29.77
2018-02-05T20:12:56.151Z,25.97
2018-02-05T20:15:23.626Z,27.20
2018-02-05T20:17:51.094Z,26.40
2018-02-05T20:20:18.574Z,24.43
2018-02-05T20:22:46.011Z,21.47
2018-02-05T20:25:13.520Z,29.03
2018-02-05T20:27:41.005Z,24.60
2018-02-05T20:30:08.439Z,27.17
2018-02-05T20:32:35.891Z,23.30
2018-02-05T20:35:03.325Z,21.50
2018-02-05T20:37:31.677Z,28.97
2018-02-05T20:39:59.104Z,24.83
2018-02-05T20:42:26.552Z,26.50
2018-02-05T20:44:53.996Z,23.07
2018-02-05T20:47:21.481Z,24.50
2018-02-05T20:49:48.912Z,24.17
2018-02-05T20:52:17.187Z,26.23
2018-02-05T20:54:44.658Z,26.47
2018-02-05T20:57:12.088Z,28.07
2018-02-05T20:59:40.360Z,24.47
2018-02-05T21:02:07.784Z,24.90
2018-02-05T21:04:35.242Z,28.60
2018-02-05T21:07:02.718Z,25.00
2018-02-05T21:09:30.158Z,27.03
2018-02-05T21:11:57.596Z,30.40
2018-02-05T21:14:25.807Z,30.97
2018-02-05T21:16:53.306Z,23.60
2018-02-05T21:19:20.736Z,27.33
2018-02-05T21:21:48.187Z,24.97
2018-02-05T21:24:15.631Z,24.10
2018-02-05T21:26:43.113Z,30.20
2018-02-05T21:29:10.557Z,23.27
2018-02-05T21:31:37.999Z,24.83
2018-02-05T21:34:05.495Z,25.40
2018-02-05T21:36:32.966Z,25.33
2018-02-05T21:39:00.405Z,22.23
2018-02-05T21:41:28.611Z,25.00
2018-02-05T21:43:56.059Z,23.83
2018-02-05T21:46:23.495Z,23.60
2018-02-05T21:48:50.940Z,29.70
2018-02-05T21:51:19.159Z,23.90
2018-02-05T21:53:46.600Z,25.80
2018-02-05T21:56:14.052Z,25.17
2018-02-05T21:58:41.548Z,25.97
2018-02-05T22:01:08.979Z,22.23
2018-02-05T22:03:36.415Z,25.80
2018-02-05T22:06:03.860Z,24.57
2018-02-05T22:08:31.344Z,26.87
2018-02-05T22:10:59.516Z,28.60
2018-02-05T22:13:26.955Z,21.10
2018-02-05T22:15:54.405Z,25.33
2018-02-05T22:18:21.851Z,27.30
2018-02-05T22:20:50.076Z,25.30
2018-02-05T22:23:17.553Z,30.30
2018-02-05T22:25:44.987Z,26.87
2018-02-05T22:28:12.423Z,23.93
2018-02-05T22:30:39.893Z,29.47
2018-02-05T22:33:08.243Z,23.47
2018-02-05T22:35:35.690Z,21.37
2018-02-05T22:38:03.136Z,21.90
2018-02-05T22:40:30.592Z,18.30
2018-02-05T22:42:58.035Z,22.83
2018-02-05T22:45:25.482Z,27.70
2018-02-05T22:47:53.700Z,22.40
2018-02-05T22:50:21.164Z,29.30
2018-02-05T22:52:48.610Z,22.40
2018-02-05T22:55:16.067Z,23.03
2018-02-05T22:57:43.515Z,21.53
2018-02-05T23:00:10.971Z,22.00
2018-02-05T23:02:39.174Z,19.23
2018-02-05T23:05:07.387Z,22.10
2018-02-05T23:07:34.828Z,19.40
2018-02-05T23:10:02.271Z,19.50
2018-02-05T23:12:29.710Z,24.63
2018-02-05T23:14:57.935Z,21.57
2018-02-05T23:17:25.380Z,22.37
2018-02-05T23:19:52.816Z,18.43
2018-02-05T23:22:20.276Z,23.13
2018-02-05T23:24:47.716Z,24.97
2018-02-05T23:27:15.172Z,19.70
2018-02-05T23:29:42.611Z,21.73
2018-02-05T23:32:10.059Z,28.60
2018-02-05T23:34:37.504Z,19.73
2018-02-05T23:37:04.951Z,17.00
2018-02-05T23:39:32.399Z,23.77
2018-02-05T23:41:59.846Z,18.07
2018-02-05T23:44:27.288Z,26.13
2018-02-05T23:46:55.504Z,19.57
2018-02-05T23:49:22.945Z,19.30
2018-02-05T23:51:50.391Z,18.50
2018-02-05T23:54:17.832Z,18.27
2018-02-05T23:56:46.051Z,19.90
2018-02-05T23:59:13.487Z,22.87
